Time;durP1;ratioP1;P1;durP2;ratioP2;P2;SDS_P1;SDS_P2;PMS_P1;PMS_P2;Temp;Humidity;BMP_temperature;BMP_pressure;BME280_temperature;BME280_humidity;BME280_pressure;Samples;Min_cycle;Max_cycle;Signal;HPM_P1;HPM_P2
2022/09/19 00:03:11;;;;;;;1.20;1.07;;;;;8.00;95908.00;;;;8361169;28;20570;-71
2022/09/19 00:07:15;;;;;;;2.22;0.88;;;;;8.00;95916.00;;;;8361987;28;20269;-70
2022/09/19 00:11:19;;;;;;;3.30;1.10;;;;;7.90;95918.00;;;;8360668;28;20239;-70
2022/09/19 00:15:22;;;;;;;0.93;0.90;;;;;7.90;95928.00;;;;8360674;28;20221;-69
2022/09/19 00:19:27;;;;;;;0.77;0.70;;;;;7.90;95919.00;;;;8360380;28;20236;-69
2022/09/19 00:28:25;;;;;;;0.80;0.80;;;;;7.80;95917.00;;;;8360639;28;20634;-68
2022/09/19 00:32:29;;;;;;;0.93;0.93;;;;;7.70;95920.00;;;;8361215;28;20224;-69
2022/09/19 00:36:34;;;;;;;1.00;1.00;;;;;7.70;95919.00;;;;8360191;28;20221;-68
2022/09/19 00:40:37;;;;;;;1.00;1.00;;;;;7.60;95916.00;;;;8361386;28;20220;-68
2022/09/19 00:45:03;;;;;;;0.70;0.70;;;;;7.50;95913.00;;;;8360655;28;20221;-69
2022/09/19 00:49:10;;;;;;;0.80;0.80;;;;;7.50;95914.00;;;;8354898;28;20259;-69
2022/09/19 00:53:43;;;;;;;1.00;0.90;;;;;7.40;95917.00;;;;8360587;28;20228;-69
2022/09/19 00:57:59;;;;;;;0.80;0.80;;;;;7.40;95916.00;;;;8360762;28;20649;-69
2022/09/19 01:02:04;;;;;;;0.80;0.80;;;;;7.40;95914.00;;;;8360414;28;20635;-69
2022/09/19 01:06:35;;;;;;;0.80;0.80;;;;;7.30;95918.00;;;;8360612;28;20561;-69
2022/09/19 01:11:04;;;;;;;1.97;0.90;;;;;7.30;95916.00;;;;8360521;28;20262;-69
2022/09/19 01:15:29;;;;;;;2.20;0.80;;;;;7.20;95923.00;;;;8359690;28;20236;-69
2022/09/19 01:19:49;;;;;;;0.77;0.77;;;;;7.10;95928.00;;;;8359865;28;20216;-68
2022/09/19 01:24:23;;;;;;;0.77;0.77;;;;;7.10;95925.00;;;;8359113;28;20232;-69
2022/09/19 01:29:07;;;;;;;1.67;0.70;;;;;7.20;95923.00;;;;8366531;28;21397;-70
2022/09/19 01:33:17;;;;;;;0.70;0.70;;;;;7.20;95939.00;;;;8365261;28;20224;-69
2022/09/19 01:37:27;;;;;;;0.90;0.90;;;;;7.20;95952.00;;;;8366145;28;20225;-69
2022/09/19 01:41:30;;;;;;;0.70;0.70;;;;;7.20;95946.00;;;;8365483;28;20308;-68
2022/09/19 01:45:38;;;;;;;0.60;0.60;;;;;7.30;95944.00;;;;8365055;28;20224;-69
2022/09/19 01:49:51;;;;;;;0.67;0.67;;;;;7.30;95940.00;;;;8365686;28;20654;-69
2022/09/19 01:54:10;;;;;;;0.60;0.60;;;;;7.40;95939.00;;;;8365726;28;20228;-69
2022/09/19 01:58:35;;;;;;;0.67;0.60;;;;;7.50;95936.00;;;;8364731;28;20220;-69
2022/09/19 02:02:49;;;;;;;2.60;0.70;;;;;7.60;95934.00;;;;8365554;28;20219;-69
2022/09/19 02:06:59;;;;;;;0.53;0.53;;;;;7.70;95932.00;;;;8365349;28;20658;-69
2022/09/19 02:11:27;;;;;;;0.60;0.60;;;;;7.70;95940.00;;;;8364811;28;20240;-69
2022/09/19 02:15:34;;;;;;;1.23;0.97;;;;;7.80;95932.00;;;;8364183;28;20649;-69
2022/09/19 02:19:43;;;;;;;4.57;0.80;;;;;7.90;95944.00;;;;8364448;28;20231;-69
2022/09/19 02:23:50;;;;;;;2.80;1.10;;;;;7.90;95946.00;;;;8364220;28;20220;-69
2022/09/19 02:27:58;;;;;;;1.53;0.90;;;;;8.00;95953.00;;;;8364779;28;20595;-70
2022/09/19 02:32:02;;;;;;;0.90;0.90;;;;;8.00;95946.00;;;;8364382;28;20662;-70
2022/09/19 02:36:13;;;;;;;6.03;1.50;;;;;8.10;95952.00;;;;8363448;28;20228;-70
2022/09/19 02:40:47;;;;;;;1.33;0.80;;;;;8.10;95949.00;;;;8363615;28;20225;-71
2022/09/19 02:45:02;;;;;;;8.03;1.07;;;;;8.20;95951.00;;;;8364399;28;20224;-71
2022/09/19 02:49:12;;;;;;;1.47;1.20;;;;;8.20;95950.00;;;;8363006;28;20224;-71
2022/09/19 02:53:26;;;;;;;6.33;1.27;;;;;8.30;95956.00;;;;8363951;28;20228;-72
2022/09/19 02:57:54;;;;;;;4.13;1.70;;;;;8.30;95961.00;;;;8363627;28;20220;-71
2022/09/19 03:02:01;;;;;;;1.40;1.30;;;;;8.40;95957.00;;;;8362648;28;20670;-71
2022/09/19 03:06:07;;;;;;;6.93;1.63;;;;;8.40;95970.00;;;;8363261;28;20232;-72
2022/09/19 03:10:46;;;;;;;1.70;1.60;;;;;8.40;95965.00;;;;8359830;28;20566;-72
2022/09/19 03:14:56;;;;;;;6.43;1.90;;;;;8.40;95981.00;;;;8363259;28;20658;-73
2022/09/19 03:19:05;;;;;;;2.53;1.63;;;;;8.50;95964.00;;;;8362758;28;20227;-74
2022/09/19 03:23:38;;;;;;;3.97;1.80;;;;;8.40;95970.00;;;;8363256;28;20220;-73
2022/09/19 03:27:43;;;;;;;1.70;1.60;;;;;8.40;95981.00;;;;8361969;28;20220;-72
2022/09/19 03:31:47;;;;;;;4.20;1.73;;;;;8.50;95974.00;;;;8362652;28;20224;-71
2022/09/19 03:35:56;;;;;;;4.77;1.70;;;;;8.60;95985.00;;;;8363018;28;20303;-72
2022/09/19 03:39:59;;;;;;;4.87;2.10;;;;;8.60;95984.00;;;;8362343;28;20243;-71
2022/09/19 03:44:04;;;;;;;5.45;1.80;;;;;8.60;95972.00;;;;8362113;28;20224;-72
2022/09/19 03:48:38;;;;;;;5.20;1.35;;;;;8.60;95982.00;;;;8360669;28;20609;-73
2022/09/19 03:53:17;;;;;;;3.20;1.97;;;;;8.60;95991.00;;;;8360250;28;20224;-72
2022/09/19 03:57:20;;;;;;;2.47;2.08;;;;;8.60;95997.00;;;;8361372;28;20220;-71
2022/09/19 04:01:25;;;;;;;8.93;2.63;;;;;8.60;95995.00;;;;8360545;28;20225;-71
2022/09/19 04:05:28;;;;;;;8.30;2.40;;;;;8.60;95996.00;;;;8361997;28;20221;-72
2022/09/19 04:09:33;;;;;;;6.00;2.40;;;;;8.60;95985.00;;;;8361044;28;20228;-71
2022/09/19 04:14:07;;;;;;;2.33;1.73;;;;;8.60;95994.00;;;;8357921;28;20216;-71
2022/09/19 04:18:11;;;;;;;5.43;2.10;;;;;8.50;96001.00;;;;8359809;28;20224;-71
2022/09/19 04:22:45;;;;;;;3.40;2.20;;;;;8.60;96010.00;;;;8356721;28;20220;-69
2022/09/19 04:27:22;;;;;;;2.90;1.90;;;;;8.50;96009.00;;;;8360492;28;20657;-69
2022/09/19 04:31:26;;;;;;;3.70;1.47;;;;;8.50;95998.00;;;;8360952;28;20270;-70
2022/09/19 04:36:02;;;;;;;5.60;2.20;;;;;8.60;96016.00;;;;8360121;28;20235;-70
2022/09/19 04:40:39;;;;;;;5.23;2.30;;;;;8.60;96022.00;;;;8360248;28;20220;-70
2022/09/19 04:45:20;;;;;;;3.87;2.13;;;;;8.60;96025.00;;;;8360591;28;20217;-68
2022/09/19 04:49:50;;;;;;;3.27;2.10;;;;;8.60;96028.00;;;;8359344;28;20619;-68
2022/09/19 04:54:37;;;;;;;6.37;3.00;;;;;8.70;96048.00;;;;8359843;28;20220;-68
2022/09/19 04:59:05;;;;;;;7.50;1.90;;;;;8.70;96040.00;;;;8346185;28;20227;-69
2022/09/19 05:03:12;;;;;;;4.05;2.28;;;;;8.80;96039.00;;;;8366839;28;20233;-70
2022/09/19 05:07:43;;;;;;;3.27;2.27;;;;;8.80;96054.00;;;;8366751;28;20594;-69
2022/09/19 05:11:49;;;;;;;4.10;2.17;;;;;8.80;96053.00;;;;8365684;28;20216;-69
2022/09/19 05:16:23;;;;;;;9.97;3.17;;;;;8.80;96065.00;;;;8366947;28;20220;-69
2022/09/19 05:25:42;;;;;;;7.50;3.10;;;;;8.90;96077.00;;;;8365962;28;20223;-70
2022/09/19 05:30:22;;;;;;;12.02;3.50;;;;;8.90;96078.00;;;;8365620;28;20221;-69
2022/09/19 05:34:26;;;;;;;8.30;3.27;;;;;9.00;96080.00;;;;8365722;28;20224;-70
2022/09/19 05:39:03;;;;;;;10.93;5.40;;;;;9.00;96098.00;;;;8364426;28;20250;-70
2022/09/19 05:43:40;;;;;;;10.87;4.00;;;;;9.00;96094.00;;;;8365514;28;20673;-70
2022/09/19 05:48:18;;;;;;;14.07;4.00;;;;;9.00;96102.00;;;;8365409;28;20228;-69
2022/09/19 05:56:41;;;;;;;8.60;3.10;;;;;9.10;96131.00;;;;8365364;28;20217;-70
2022/09/19 06:01:19;;;;;;;10.75;3.35;;;;;9.10;96122.00;;;;8365482;28;20262;-70
2022/09/19 06:05:25;;;;;;;10.30;3.70;;;;;9.10;96132.00;;;;8365241;28;20225;-70
2022/09/19 06:10:00;;;;;;;13.18;3.92;;;;;9.20;96145.00;;;;8365383;28;20225;-70
2022/09/19 06:14:17;;;;;;;15.65;4.35;;;;;9.30;96143.00;;;;8364383;28;20221;-70
2022/09/19 06:18:20;;;;;;;14.47;4.53;;;;;9.30;96147.00;;;;8364640;28;20221;-70
2022/09/19 06:23:00;;;;;;;11.47;4.00;;;;;9.30;96158.00;;;;8363749;28;20224;-70
2022/09/19 06:27:03;;;;;;;6.77;3.70;;;;;9.30;96164.00;;;;8364376;28;20658;-70
2022/09/19 06:36:07;;;;;;;6.17;3.43;;;;;9.30;96162.00;;;;8361957;28;20378;-71
2022/09/19 06:40:46;;;;;;;12.45;4.20;;;;;9.30;96181.00;;;;8364167;28;20222;-71
2022/09/19 06:45:24;;;;;;;15.35;4.28;;;;;9.40;96188.00;;;;8360304;28;20217;-71
2022/09/19 06:49:27;;;;;;;12.47;4.30;;;;;9.50;96188.00;;;;8362463;28;20303;-69
2022/09/19 06:54:04;;;;;;;13.87;4.40;;;;;9.50;96196.00;;;;8362292;28;20555;-70
2022/09/19 06:58:41;;;;;;;18.63;4.43;;;;;9.50;96198.00;;;;8362547;28;20228;-69
2022/09/19 07:03:15;;;;;;;13.13;4.37;;;;;9.50;96211.00;;;;8361743;28;20213;-69
2022/09/19 07:07:53;;;;;;;14.20;4.82;;;;;9.50;96215.00;;;;8362149;28;20229;-68
2022/09/19 07:11:56;;;;;;;13.57;3.87;;;;;9.60;96228.00;;;;8362555;28;20258;-69
2022/09/19 07:16:03;;;;;;;8.83;3.97;;;;;9.70;96239.00;;;;8360751;28;20266;-68
2022/09/19 07:25:22;;;;;;;19.13;4.53;;;;;9.90;96248.00;;;;8361681;28;20250;-69
2022/09/19 07:29:25;;;;;;;8.33;3.87;;;;;10.00;96260.00;;;;8361464;28;20216;-69
2022/09/19 07:33:59;;;;;;;11.47;4.20;;;;;10.00;96260.00;;;;8359023;28;20232;-75
2022/09/19 07:38:36;;;;;;;12.60;4.20;;;;;10.00;96274.00;;;;8360519;28;20224;-68
2022/09/19 07:42:43;;;;;;;13.68;4.70;;;;;10.10;96278.00;;;;8361205;28;20220;-68
2022/09/19 07:47:30;;;;;;;11.82;4.47;;;;;10.30;96281.00;;;;8360343;28;20213;-67
2022/09/19 07:52:03;;;;;;;9.48;3.58;;;;;10.40;96293.00;;;;8360679;28;20220;-67
2022/09/19 07:56:10;;;;;;;7.57;3.42;;;;;10.60;96304.00;;;;8360647;28;20634;-68
2022/09/19 08:00:48;;;;;;;8.18;3.70;;;;;10.80;96305.00;;;;8360426;28;20228;-70
2022/09/19 08:05:24;;;;;;;11.32;3.65;;;;;11.00;96309.00;;;;8360240;28;20214;-71
2022/09/19 08:09:58;;;;;;;9.73;4.22;;;;;11.10;96320.00;;;;8361680;28;20251;-72
2022/09/19 08:14:02;;;;;;;11.70;3.65;;;;;11.20;96328.00;;;;8361393;28;20221;-72
2022/09/19 08:18:07;;;;;;;8.02;3.25;;;;;11.30;96331.00;;;;8360121;28;20228;-72
2022/09/19 08:22:11;;;;;;;8.23;3.70;;;;;11.40;96347.00;;;;8361349;28;20228;-73
2022/09/19 08:26:44;;;;;;;6.78;3.70;;;;;11.60;96342.00;;;;8360160;28;20267;-74
2022/09/19 08:30:49;;;;;;;9.13;3.88;;;;;11.80;96341.00;;;;8359516;28;20224;-73
2022/09/19 08:35:24;;;;;;;6.20;3.38;;;;;12.00;96352.00;;;;8356360;28;20291;-73
2022/09/19 08:39:27;;;;;;;7.43;2.95;;;;;12.40;96362.00;;;;8363964;28;20247;-73
2022/09/19 08:43:42;;;;;;;6.60;2.72;;;;;12.50;96365.00;;;;8360090;28;20231;-74
2022/09/19 08:48:11;;;;;;;9.82;2.95;;;;;12.30;96380.00;;;;8360799;28;20267;-74
2022/09/19 08:52:23;;;;;;;7.53;3.42;;;;;12.40;96388.00;;;;8359958;28;20229;-74
2022/09/19 08:56:52;;;;;;;5.03;3.08;;;;;12.20;96391.00;;;;8360824;28;20240;-74
2022/09/19 09:01:29;;;;;;;9.90;3.30;;;;;11.80;96394.00;;;;8359836;28;20220;-70
2022/09/19 09:05:45;;;;;;;10.57;3.83;;;;;11.50;96397.00;;;;8359516;28;20538;-71
2022/09/19 09:10:11;;;;;;;7.25;3.60;;;;;11.30;96393.00;;;;8359631;28;20230;-72
2022/09/19 09:14:22;;;;;;;12.13;3.95;;;;;11.30;96409.00;;;;8359594;28;20266;-72
2022/09/19 09:18:45;;;;;;;15.25;4.38;;;;;11.40;96412.00;;;;8359681;28;20225;-73
2022/09/19 09:23:09;;;;;;;5.13;2.97;;;;;11.60;96417.00;;;;8358885;28;20212;-73
2022/09/19 09:27:19;;;;;;;10.55;3.42;;;;;11.70;96412.00;;;;8360060;28;20216;-72
2022/09/19 09:31:51;;;;;;;7.53;3.15;;;;;11.60;96417.00;;;;8358259;28;20274;-69
2022/09/19 09:36:23;;;;;;;13.45;3.67;;;;;11.50;96423.00;;;;8359179;28;20288;-69
2022/09/19 09:45:36;;;;;;;11.20;4.05;;;;;11.80;96434.00;;;;8359139;28;20363;-72
2022/09/19 09:50:25;;;;;;;14.13;4.20;;;;;12.00;96435.00;;;;8364383;28;20219;-72
2022/09/19 10:04:02;;;;;;;13.13;3.92;;;;;12.90;96443.00;;;;8356118;28;20419;-73
2022/09/19 10:08:37;;;;;;;7.53;2.90;;;;;13.00;96441.00;;;;8362734;28;20223;-73
2022/09/19 10:13:16;;;;;;;7.78;3.50;;;;;13.00;96448.00;;;;8363658;28;20219;-71
2022/09/19 10:17:46;;;;;;;10.77;3.80;;;;;13.20;96449.00;;;;8360631;28;20269;-71
2022/09/19 10:22:25;;;;;;;10.00;3.35;;;;;13.50;96452.00;;;;8362704;28;20219;-71
2022/09/19 10:26:49;;;;;;;6.50;3.10;;;;;14.20;96459.00;;;;8363501;28;20232;-74
2022/09/19 10:31:30;;;;;;;6.05;3.03;;;;;15.20;96457.00;;;;8361957;28;20242;-75
2022/09/19 10:36:01;;;;;;;7.60;2.88;;;;;15.40;96466.00;;;;8363738;28;20212;-73
2022/09/19 10:40:43;;;;;;;8.50;2.70;;;;;14.80;96463.00;;;;8363690;28;20311;-74
2022/09/19 10:45:25;;;;;;;5.18;2.40;;;;;14.40;96464.00;;;;8362469;28;20243;-81
2022/09/19 10:50:00;;;;;;;7.72;2.58;;;;;14.00;96468.00;;;;8362169;28;20399;-87
2022/09/19 10:54:36;;;;;;;3.30;2.70;;;;;13.50;96474.00;;;;8368105;28;20565;-80
2022/09/19 10:58:42;;;;;;;11.07;3.22;;;;;13.40;96487.00;;;;8362225;28;20214;-80
2022/09/19 11:03:23;;;;;;;6.88;2.47;;;;;13.20;96489.00;;;;8362428;28;20295;-71
2022/09/19 11:07:28;;;;;;;4.03;2.70;;;;;13.10;96480.00;;;;8363390;28;20220;-75
2022/09/19 11:11:36;;;;;;;12.45;3.20;;;;;13.40;96479.00;;;;8362398;28;20278;-76
2022/09/19 11:16:18;;;;;;;7.60;3.00;;;;;13.70;96492.00;;;;8362853;28;20281;-73
2022/09/19 11:25:39;;;;;;;9.98;2.67;;;;;14.90;96487.00;;;;8362138;28;20293;-77
2022/09/19 11:30:14;;;;;;;4.15;2.53;;;;;15.90;96480.00;;;;8361735;28;20619;-80
2022/09/19 11:35:01;;;;;;;5.00;2.47;;;;;16.20;96485.00;;;;8362645;28;20282;-82
2022/09/19 11:39:41;;;;;;;7.25;2.72;;;;;16.20;96486.00;;;;8357575;28;20278;-80
2022/09/19 11:44:23;;;;;;;5.25;2.60;;;;;16.10;96478.00;;;;8350891;28;20228;-80
2022/09/19 11:49:16;;;;;;;5.40;2.30;;;;;16.20;96480.00;;;;8367153;28;20232;-83
2022/09/19 11:54:05;;;;;;;2.78;2.10;;;;;16.20;96479.00;;;;8349107;28;20219;-79
2022/09/19 11:58:38;;;;;;;5.22;2.00;;;;;16.30;96487.00;;;;8361702;28;20216;-77
2022/09/19 12:03:22;;;;;;;3.15;2.10;;;;;16.30;96472.00;;;;8360116;28;20282;-76
2022/09/19 12:08:00;;;;;;;4.18;2.10;;;;;16.40;96477.00;;;;8361091;28;20589;-75
2022/09/19 12:12:31;;;;;;;1.73;1.63;;;;;16.20;96472.00;;;;8361144;28;20220;-75
2022/09/19 12:17:05;;;;;;;5.95;2.28;;;;;16.00;96456.00;;;;8361482;28;20248;-76
2022/09/19 12:26:30;;;;;;;7.75;2.30;;;;;15.10;96464.00;;;;8360191;28;20227;-75
2022/09/19 12:31:04;;;;;;;5.45;2.20;;;;;14.60;96462.00;;;;8360664;28;20274;-73
2022/09/19 12:35:42;;;;;;;5.30;2.40;;;;;14.20;96465.00;;;;8360974;28;20235;-72
2022/09/19 12:40:19;;;;;;;8.23;2.45;;;;;13.90;96457.00;;;;8359337;28;20282;-70
2022/09/19 12:44:53;;;;;;;10.88;4.05;;;;;13.90;96464.00;;;;8360739;28;20252;-69
2022/09/19 12:49:34;;;;;;;4.80;2.50;;;;;14.00;96449.00;;;;8360707;28;20219;-74
2022/09/19 12:54:11;;;;;;;7.97;2.40;;;;;14.10;96465.00;;;;8360559;28;20711;-75
2022/09/19 12:58:20;;;;;;;5.07;2.40;;;;;13.90;96449.00;;;;8360321;28;20257;-74
2022/09/19 13:02:51;;;;;;;4.53;2.17;;;;;13.90;96467.00;;;;8353135;28;20223;-73
2022/09/19 13:07:31;;;;;;;47.17;20.77;;;;;13.60;96451.00;;;;8369196;28;20308;-72
2022/09/19 13:12:06;;;;;;;11.57;3.33;;;;;13.40;96459.00;;;;8360038;28;20228;-74
2022/09/19 13:16:13;;;;;;;153.10;65.97;;;;;13.50;96456.00;;;;8360510;28;20213;-74
2022/09/19 13:25:44;;;;;;;5.45;2.65;;;;;13.80;96464.00;;;;8232422;28;20227;-74
2022/09/19 13:35:03;;;;;;;8.68;4.22;;;;;13.60;96455.00;;;;8365726;28;20527;-75
2022/09/19 13:39:48;;;;;;;16.60;8.73;;;;;13.70;96462.00;;;;8361756;28;20219;-75
2022/09/19 13:44:23;;;;;;;10.85;4.80;;;;;13.90;96455.00;;;;8364397;28;20262;-79
2022/09/19 13:48:58;;;;;;;3.85;2.92;;;;;14.00;96448.00;;;;8364775;28;20596;-79
2022/09/19 13:53:36;;;;;;;6.78;2.53;;;;;14.10;96436.00;;;;8365906;28;20274;-78
2022/09/19 13:58:17;;;;;;;3.28;2.30;;;;;14.60;96457.00;;;;8361938;28;20224;-74
2022/09/19 14:03:00;;;;;;;8.57;3.42;;;;;15.30;96459.00;;;;8366102;28;20757;-77
2022/09/19 14:07:38;;;;;;;5.53;2.40;;;;;15.30;96455.00;;;;8364853;28;20271;-77
2022/09/19 14:12:39;;;;;;;4.70;2.30;;;;;15.60;96448.00;;;;8364906;28;20216;-76
2022/09/19 14:17:28;;;;;;;3.80;1.98;;;;;15.70;96443.00;;;;8365084;28;20220;-77
2022/09/19 14:21:57;;;;;;;3.92;2.20;;;;;15.60;96443.00;;;;8364425;28;20278;-76
2022/09/19 14:26:40;;;;;;;4.50;2.40;;;;;15.60;96436.00;;;;8363854;28;20304;-78
2022/09/19 14:31:16;;;;;;;6.45;2.42;;;;;15.60;96435.00;;;;8362522;28;20666;-77
2022/09/19 14:35:51;;;;;;;9.45;2.60;;;;;15.80;96445.00;;;;8363896;28;20224;-78
2022/09/19 14:40:30;;;;;;;6.78;2.10;;;;;15.80;96447.00;;;;8363916;28;20248;-78
2022/09/19 14:45:13;;;;;;;2.33;1.67;;;;;15.80;96451.00;;;;8364170;28;20312;-78
2022/09/19 14:49:42;;;;;;;5.45;2.08;;;;;15.60;96431.00;;;;8357779;28;20321;-77
2022/09/19 14:54:27;;;;;;;6.50;1.92;;;;;15.90;96455.00;;;;8361703;28;20220;-79
2022/09/19 14:58:56;;;;;;;3.75;1.60;;;;;16.30;96462.00;;;;8360615;28;20217;-75
2022/09/19 15:03:43;;;;;;;4.40;1.85;;;;;16.60;96460.00;;;;8362022;28;20598;-75
2022/09/19 15:08:15;;;;;;;4.80;2.10;;;;;16.50;96460.00;;;;8362793;28;20231;-76
2022/09/19 15:12:24;;;;;;;3.55;1.90;;;;;16.30;96461.00;;;;8362937;28;20279;-76
2022/09/19 15:17:09;;;;;;;3.65;1.83;;;;;16.20;96468.00;;;;8358968;28;20216;-75
2022/09/19 15:21:17;;;;;;;3.20;1.50;;;;;16.10;96466.00;;;;8350081;28;20241;-76
2022/09/19 15:25:48;;;;;;;6.15;2.28;;;;;15.80;96472.00;;;;8348334;28;20238;-75
2022/09/19 15:30:28;;;;;;;3.00;1.80;;;;;15.40;96489.00;;;;8362488;28;20223;-74
2022/09/19 15:35:03;;;;;;;2.20;1.60;;;;;14.60;96492.00;;;;8361704;28;20263;-72
2022/09/19 15:39:37;;;;;;;1.70;1.55;;;;;13.30;96487.00;;;;8361201;28;20362;-72
2022/09/19 15:44:24;;;;;;;2.30;1.50;;;;;12.70;96486.00;;;;8356173;28;20224;-71
2022/09/19 15:48:55;;;;;;;3.13;1.77;;;;;12.30;96497.00;;;;8362625;28;20251;-70
2022/09/19 15:53:27;;;;;;;1.70;1.52;;;;;12.30;96489.00;;;;8360802;28;20235;-69
2022/09/19 15:58:05;;;;;;;1.40;1.30;;;;;12.10;96491.00;;;;8359396;28;20276;-69
2022/09/19 16:02:45;;;;;;;1.80;1.70;;;;;12.00;96501.00;;;;8360554;28;20232;-69
2022/09/19 16:12:02;;;;;;;20.52;10.82;;;;;12.00;96491.00;;;;8358204;28;20215;-70
2022/09/19 16:16:35;;;;;;;5.97;5.35;;;;;12.00;96502.00;;;;8359911;28;20589;-72
2022/09/19 16:21:10;;;;;;;7.82;7.00;;;;;12.00;96496.00;;;;8359598;28;20224;-71
2022/09/19 16:25:44;;;;;;;11.10;4.88;;;;;11.90;96495.00;;;;8326715;28;20281;-71
2022/09/19 16:30:22;;;;;;;71.32;41.88;;;;;11.80;96487.00;;;;8327524;28;20274;-71
2022/09/19 16:35:00;;;;;;;86.82;47.85;;;;;11.70;96485.00;;;;8327351;28;20266;-73
2022/09/19 16:39:40;;;;;;;52.58;34.10;;;;;11.60;96480.00;;;;8324875;28;20225;-70
2022/09/19 16:44:21;;;;;;;34.78;20.23;;;;;11.60;96490.00;;;;8326351;28;20277;-69
2022/09/19 16:48:59;;;;;;;525.47;360.05;;;;;11.50;96497.00;;;;8320522;28;20264;-68
2022/09/19 16:53:33;;;;;;;69.22;46.25;;;;;11.50;96491.00;;;;8326195;28;20299;-68
2022/09/19 16:58:11;;;;;;;14.30;12.13;;;;;11.60;96477.00;;;;8330294;28;20633;-67
2022/09/19 17:02:48;;;;;;;50.92;36.30;;;;;11.60;96479.00;;;;8328172;28;20231;-67
2022/09/19 17:07:25;;;;;;;18.98;14.02;;;;;11.50;96485.00;;;;8332887;28;20703;-72
2022/09/19 17:12:04;;;;;;;49.20;44.30;;;;;11.50;96502.00;;;;8333447;28;20272;-70
2022/09/19 17:16:38;;;;;;;9.40;5.97;;;;;11.50;96495.00;;;;8330841;28;20227;-70
2022/09/19 17:21:16;;;;;;;15.68;14.13;;;;;11.50;96505.00;;;;8332437;28;20242;-70
2022/09/19 17:25:54;;;;;;;9.05;6.95;;;;;11.40;96504.00;;;;8365141;28;21245;-71
2022/09/19 17:30:30;;;;;;;7.13;5.45;;;;;11.30;96497.00;;;;8361541;28;20216;-72
2022/09/19 17:35:10;;;;;;;5.45;4.00;;;;;11.30;96493.00;;;;8365745;28;20254;-72
2022/09/19 17:39:44;;;;;;;6.95;3.30;;;;;11.10;96493.00;;;;8365178;28;20258;-73
2022/09/19 17:44:22;;;;;;;3.42;2.55;;;;;11.10;96487.00;;;;8361549;28;20279;-72
2022/09/19 17:48:57;;;;;;;9.88;6.82;;;;;11.00;96491.00;;;;8364300;28;20233;-72
2022/09/19 17:53:31;;;;;;;6.30;3.20;;;;;10.90;96493.00;;;;8364327;28;20616;-72
2022/09/19 17:58:08;;;;;;;7.97;2.83;;;;;10.80;96494.00;;;;8364014;28;20225;-72
2022/09/19 18:07:20;;;;;;;9.98;5.10;;;;;10.60;96515.00;;;;8362993;28;20257;-71
2022/09/19 18:11:57;;;;;;;8.35;5.85;;;;;10.50;96514.00;;;;8368807;28;20219;-71
2022/09/19 18:16:31;;;;;;;91.65;53.75;;;;;10.40;96525.00;;;;8363911;28;20546;-72
2022/09/19 18:21:09;;;;;;;57.40;35.80;;;;;10.20;96523.00;;;;8362554;28;20214;-72
2022/09/19 18:25:44;;;;;;;11.07;3.95;;;;;10.10;96535.00;;;;8364309;28;20507;-71
2022/09/19 18:30:23;;;;;;;7.68;4.32;;;;;10.10;96538.00;;;;8359466;28;20650;-72
2022/09/19 18:35:00;;;;;;;5.25;4.03;;;;;10.10;96542.00;;;;8363161;28;20507;-72
2022/09/19 18:39:34;;;;;;;16.10;4.60;;;;;10.00;96543.00;;;;8362211;28;20220;-71
2022/09/19 18:44:10;;;;;;;9.17;3.87;;;;;10.00;96545.00;;;;8363653;28;20228;-70
2022/09/19 18:48:49;;;;;;;8.07;4.88;;;;;9.90;96539.00;;;;8363146;28;20651;-71
2022/09/19 18:53:23;;;;;;;17.38;5.28;;;;;9.90;96537.00;;;;8363098;28;20235;-71
2022/09/19 18:58:00;;;;;;;8.88;5.68;;;;;9.90;96535.00;;;;8363393;28;20554;-71
2022/09/19 19:02:37;;;;;;;15.30;8.45;;;;;9.90;96541.00;;;;8362598;28;20232;-72
2022/09/19 19:07:16;;;;;;;15.85;6.75;;;;;9.90;96540.00;;;;8361685;28;20218;-70
2022/09/19 19:11:50;;;;;;;49.92;25.23;;;;;9.90;96546.00;;;;8362162;28;20218;-69
2022/09/19 19:16:31;;;;;;;11.07;4.88;;;;;9.80;96544.00;;;;8362961;28;20221;-69
2022/09/19 19:21:06;;;;;;;12.73;5.83;;;;;9.80;96547.00;;;;8361603;28;20642;-70
2022/09/19 19:25:44;;;;;;;16.55;5.00;;;;;9.80;96556.00;;;;8361467;28;20228;-70
2022/09/19 19:30:18;;;;;;;12.20;4.90;;;;;9.80;96559.00;;;;8362684;28;20216;-70
2022/09/19 19:34:52;;;;;;;7.88;4.68;;;;;9.80;96569.00;;;;8360651;28;20694;-70
2022/09/19 19:39:30;;;;;;;10.00;4.57;;;;;9.90;96577.00;;;;8361731;28;20218;-71
2022/09/19 19:44:09;;;;;;;6.03;4.60;;;;;10.00;96595.00;;;;8359123;28;20221;-70
2022/09/19 19:48:43;;;;;;;6.32;3.45;;;;;10.10;96601.00;;;;8357740;28;20236;-69
2022/09/19 19:53:21;;;;;;;8.98;3.15;;;;;10.10;96599.00;;;;8359339;28;20232;-69
2022/09/19 19:57:58;;;;;;;7.50;3.15;;;;;10.20;96590.00;;;;8358096;28;20746;-69
2022/09/19 20:02:34;;;;;;;5.28;2.80;;;;;10.20;96596.00;;;;8360873;28;20668;-69
2022/09/19 20:07:13;;;;;;;6.65;2.97;;;;;10.30;96597.00;;;;8360776;28;20216;-69
2022/09/19 20:11:50;;;;;;;10.25;2.90;;;;;10.30;96593.00;;;;8360882;28;20217;-69
2022/09/19 20:16:28;;;;;;;3.60;2.70;;;;;10.30;96603.00;;;;8360491;28;20227;-70
2022/09/19 20:20:38;;;;;;;5.38;2.45;;;;;10.30;96598.00;;;;8361301;28;20213;-69
2022/09/19 20:29:58;;;;;;;4.10;2.35;;;;;10.20;96574.00;;;;8359137;28;20302;-70
2022/09/19 20:34:32;;;;;;;6.13;2.60;;;;;10.10;96586.00;;;;8360337;28;20244;-70
2022/09/19 20:39:09;;;;;;;6.30;2.53;;;;;10.00;96594.00;;;;8351660;28;20238;-68
2022/09/19 20:43:44;;;;;;;2.63;2.30;;;;;10.00;96590.00;;;;8359526;28;20311;-70
2022/09/19 20:48:25;;;;;;;4.53;2.70;;;;;10.00;96578.00;;;;8360192;28;20562;-70
2022/09/19 20:52:28;;;;;;;3.08;2.40;;;;;10.10;96579.00;;;;8359961;28;20705;-70
2022/09/19 20:56:31;;;;;;;3.47;2.55;;;;;10.10;96569.00;;;;8360993;28;20230;-70
2022/09/19 21:01:09;;;;;;;2.40;2.20;;;;;10.10;96576.00;;;;8359798;28;20274;-70
2022/09/19 21:05:13;;;;;;;4.03;2.70;;;;;10.10;96573.00;;;;8359654;28;20232;-71
2022/09/19 21:09:17;;;;;;;6.07;2.85;;;;;10.10;96575.00;;;;8359737;28;20650;-71
2022/09/19 21:13:54;;;;;;;2.57;2.37;;;;;10.10;96563.00;;;;8359507;28;20226;-70
2022/09/19 21:18:28;;;;;;;6.35;2.70;;;;;10.20;96567.00;;;;8358889;28;20224;-70
2022/09/19 21:22:33;;;;;;;4.20;2.60;;;;;10.20;96568.00;;;;8359272;28;20592;-70
2022/09/19 21:26:37;;;;;;;3.05;2.50;;;;;10.20;96562.00;;;;8358684;28;20275;-70
2022/09/19 21:31:15;;;;;;;4.53;2.70;;;;;10.10;96568.00;;;;8359591;28;20271;-70
2022/09/19 21:35:18;;;;;;;4.47;2.85;;;;;10.10;96564.00;;;;8358873;28;20570;-70
2022/09/19 21:39:56;;;;;;;4.05;3.10;;;;;10.10;96565.00;;;;8359627;28;20217;-70
2022/09/19 21:44:02;;;;;;;6.75;3.10;;;;;10.10;96567.00;;;;8363660;28;20216;-70
2022/09/19 21:48:35;;;;;;;4.38;3.00;;;;;10.10;96572.00;;;;8365435;28;20272;-70
2022/09/19 21:52:40;;;;;;;5.70;3.15;;;;;10.00;96570.00;;;;8365283;28;20630;-70
2022/09/19 21:57:19;;;;;;;6.10;3.13;;;;;10.00;96562.00;;;;8365071;28;20235;-70
2022/09/19 22:01:24;;;;;;;5.53;2.97;;;;;10.00;96566.00;;;;8364419;28;20600;-71
2022/09/19 22:05:27;;;;;;;5.40;3.03;;;;;10.00;96566.00;;;;8365312;28;20224;-71
2022/09/19 22:10:04;;;;;;;3.90;2.97;;;;;10.00;96564.00;;;;8364211;28;22149;-71
2022/09/19 22:14:09;;;;;;;7.82;2.95;;;;;9.90;96569.00;;;;8364839;28;20677;-71
2022/09/19 22:18:47;;;;;;;8.02;3.15;;;;;9.90;96564.00;;;;8363881;28;20225;-71
2022/09/19 22:22:50;;;;;;;6.25;3.20;;;;;9.90;96561.00;;;;8363972;28;20231;-71
2022/09/19 22:27:27;;;;;;;7.13;3.40;;;;;9.90;96565.00;;;;8364034;28;20612;-71
2022/09/19 22:32:05;;;;;;;4.53;3.00;;;;;9.90;96560.00;;;;8363910;28;20365;-71
2022/09/19 22:36:11;;;;;;;6.97;5.05;;;;;9.90;96560.00;;;;8364098;28;20226;-70
2022/09/19 22:40:45;;;;;;;7.72;4.55;;;;;10.00;96561.00;;;;8363887;28;20217;-71
2022/09/19 22:44:48;;;;;;;5.38;3.45;;;;;10.00;96558.00;;;;8363442;28;20258;-71
2022/09/19 22:49:27;;;;;;;4.40;3.22;;;;;10.10;96560.00;;;;8364291;28;20239;-71
2022/09/19 22:53:33;;;;;;;5.43;3.10;;;;;10.10;96562.00;;;;8362108;28;20274;-71
2022/09/19 22:57:36;;;;;;;7.68;2.83;;;;;10.10;96567.00;;;;8363416;28;20681;-71
2022/09/19 23:01:39;;;;;;;4.13;2.83;;;;;10.00;96571.00;;;;8363333;28;20225;-71
2022/09/19 23:05:44;;;;;;;4.33;3.20;;;;;10.00;96568.00;;;;8362566;28;20222;-71
2022/09/19 23:10:23;;;;;;;7.88;3.20;;;;;10.00;96576.00;;;;8362663;28;20224;-71
2022/09/19 23:14:57;;;;;;;10.63;3.17;;;;;10.00;96575.00;;;;8363108;28;20221;-71
2022/09/19 23:19:02;;;;;;;6.20;3.00;;;;;10.00;96572.00;;;;8362181;28;20216;-71
2022/09/19 23:23:07;;;;;;;6.03;3.10;;;;;10.10;96570.00;;;;8362169;28;20236;-71
2022/09/19 23:27:41;;;;;;;4.83;2.80;;;;;10.10;96565.00;;;;8363084;28;20225;-71